createdAt,value
2019-01-10T00:01:07.777Z,2.00
2019-01-10T00:03:40.891Z,2.00
2019-01-10T00:06:13.898Z,2.00
2019-01-10T00:08:47.220Z,2.10
2019-01-10T00:11:20.315Z,2.10
2019-01-10T00:13:53.298Z,2.20
2019-01-10T00:16:26.481Z,2.10
2019-01-10T00:18:59.595Z,2.00
2019-01-10T00:21:32.731Z,2.00
2019-01-10T00:24:05.739Z,2.10
2019-01-10T00:26:38.706Z,2.00
2019-01-10T00:29:11.815Z,2.00
2019-01-10T00:31:44.890Z,2.00
2019-01-10T00:34:18.056Z,2.10
2019-01-10T00:36:51.105Z,2.10
2019-01-10T00:39:24.140Z,2.00
2019-01-10T00:41:57.228Z,2.00
2019-01-10T00:44:30.551Z,1.90
2019-01-10T00:47:03.536Z,1.90
2019-01-10T00:49:36.602Z,2.00
2019-01-10T00:52:09.617Z,2.00
2019-01-10T00:54:42.708Z,1.90
2019-01-10T00:57:15.686Z,1.90
2019-01-10T00:59:48.665Z,1.80
2019-01-10T01:02:21.746Z,1.80
2019-01-10T01:04:54.720Z,1.80
2019-01-10T01:07:27.829Z,1.70
2019-01-10T01:10:00.909Z,1.70
2019-01-10T01:12:34.028Z,1.60
2019-01-10T01:15:09.240Z,1.60
2019-01-10T01:17:42.346Z,1.60
2019-01-10T01:20:17.159Z,1.60
2019-01-10T01:22:50.255Z,1.50
2019-01-10T01:25:23.230Z,1.60
2019-01-10T01:27:56.418Z,1.50
2019-01-10T01:30:29.401Z,1.50
2019-01-10T01:33:02.562Z,1.50
2019-01-10T01:35:35.532Z,1.50
2019-01-10T01:38:08.638Z,1.50
2019-01-10T01:40:41.679Z,1.50
2019-01-10T01:43:14.604Z,1.50
2019-01-10T01:45:47.743Z,1.40
2019-01-10T01:48:20.822Z,1.50
2019-01-10T01:50:53.894Z,1.40
2019-01-10T01:53:26.988Z,1.40
2019-01-10T01:56:00.132Z,1.40
2019-01-10T01:58:33.594Z,1.30
2019-01-10T02:01:06.590Z,1.30
2019-01-10T02:03:39.680Z,1.20
2019-01-10T02:06:12.762Z,1.10
2019-01-10T02:08:45.771Z,1.10
2019-01-10T02:11:18.776Z,1.10
2019-01-10T02:13:51.978Z,1.10
2019-01-10T02:16:24.934Z,4.00
2019-01-10T02:18:58.017Z,1.00
2019-01-10T02:21:31.105Z,1.00
2019-01-10T02:24:04.294Z,1.00
2019-01-10T02:26:37.390Z,0.90
2019-01-10T02:29:10.504Z,1.00
2019-01-10T02:31:43.568Z,1.10
2019-01-10T02:34:16.548Z,1.10
2019-01-10T02:36:49.524Z,1.10
2019-01-10T02:39:23.472Z,1.10
2019-01-10T02:41:56.528Z,1.10
2019-01-10T02:44:29.634Z,1.20
2019-01-10T02:47:04.628Z,1.20
2019-01-10T02:49:38.578Z,1.20
2019-01-10T02:52:11.676Z,1.20
2019-01-10T02:54:44.774Z,1.10
2019-01-10T02:57:20.462Z,1.10
2019-01-10T02:59:53.552Z,1.20
2019-01-10T03:02:26.522Z,1.20
2019-01-10T03:04:59.618Z,1.20
2019-01-10T03:07:32.762Z,1.20
2019-01-10T03:10:07.492Z,1.20
2019-01-10T03:12:40.548Z,1.20
2019-01-10T03:15:13.644Z,1.20
2019-01-10T03:17:46.758Z,1.20
2019-01-10T03:20:21.695Z,1.30
2019-01-10T03:22:54.673Z,1.30
2019-01-10T03:25:27.788Z,1.40
2019-01-10T03:28:00.840Z,1.40
2019-01-10T03:30:34.007Z,1.30
2019-01-10T03:33:07.021Z,1.30
2019-01-10T03:35:40.099Z,1.30
2019-01-10T03:38:13.123Z,1.30
2019-01-10T03:40:46.213Z,1.40
2019-01-10T03:43:19.293Z,1.40
2019-01-10T03:45:52.537Z,1.40
2019-01-10T03:48:25.513Z,1.30
2019-01-10T03:50:58.502Z,1.30
2019-01-10T03:53:31.642Z,1.30
2019-01-10T03:56:04.997Z,1.40
2019-01-10T03:58:37.972Z,1.40
2019-01-10T04:01:11.091Z,1.40
2019-01-10T04:03:44.258Z,1.30
2019-01-10T04:06:17.231Z,1.40
2019-01-10T04:08:50.299Z,1.30
2019-01-10T04:11:23.306Z,1.40
2019-01-10T04:13:57.537Z,1.50
2019-01-10T04:16:30.886Z,1.40
2019-01-10T04:19:03.842Z,1.40
2019-01-10T04:21:36.857Z,1.50
2019-01-10T04:24:09.927Z,1.40
2019-01-10T04:26:43.038Z,1.40
2019-01-10T04:29:16.031Z,1.40
2019-01-10T04:31:49.090Z,1.40
2019-01-10T04:34:22.158Z,1.40
2019-01-10T04:36:55.088Z,1.40
2019-01-10T04:39:28.296Z,1.40
2019-01-10T04:42:01.414Z,1.40
2019-01-10T04:44:34.487Z,1.40
2019-01-10T04:47:07.673Z,1.50
2019-01-10T04:49:40.967Z,1.40
2019-01-10T04:52:14.076Z,1.40
2019-01-10T04:54:47.062Z,1.40
2019-01-10T04:57:20.197Z,1.40
2019-01-10T04:59:53.256Z,1.40
2019-01-10T05:02:26.462Z,1.50
2019-01-10T05:05:01.821Z,1.40
2019-01-10T05:07:34.155Z,1.40
2019-01-10T05:10:08.379Z,1.40
2019-01-10T05:12:41.799Z,1.50
2019-01-10T05:15:15.047Z,1.40
2019-01-10T05:17:48.155Z,1.50
2019-01-10T05:20:21.500Z,1.50
2019-01-10T05:22:54.599Z,1.40
2019-01-10T05:25:27.673Z,1.50
2019-01-10T05:28:06.409Z,1.50
2019-01-10T05:30:40.198Z,1.50
2019-01-10T05:33:13.338Z,1.50
2019-01-10T05:35:46.424Z,1.50
2019-01-10T05:38:19.595Z,1.50
2019-01-10T05:40:52.763Z,1.50
2019-01-10T05:43:26.006Z,1.50
2019-01-10T05:46:01.372Z,1.50
2019-01-10T05:48:34.514Z,0.40
2019-01-10T05:51:10.110Z,1.60
2019-01-10T05:53:44.855Z,1.60
2019-01-10T05:56:18.004Z,1.60
2019-01-10T05:58:51.130Z,1.70
2019-01-10T06:01:24.224Z,1.60
2019-01-10T06:03:57.339Z,1.60
2019-01-10T06:06:30.550Z,1.60
2019-01-10T06:09:04.623Z,1.60
2019-01-10T06:11:37.807Z,1.60
2019-01-10T06:14:10.910Z,1.60
2019-01-10T06:16:45.232Z,1.60
2019-01-10T06:19:26.529Z,1.60
2019-01-10T06:21:56.167Z,1.60
2019-01-10T06:24:29.341Z,1.60
2019-01-10T06:27:02.468Z,1.70
2019-01-10T06:29:35.847Z,1.60
2019-01-10T06:32:09.047Z,1.50
2019-01-10T06:34:42.163Z,1.60
2019-01-10T06:37:15.262Z,1.50
2019-01-10T06:39:50.305Z,1.50
2019-01-10T06:42:23.375Z,1.50
2019-01-10T06:44:56.550Z,1.50
2019-01-10T06:47:29.585Z,1.50
2019-01-10T06:50:02.784Z,1.50
2019-01-10T06:52:35.751Z,1.50
2019-01-10T06:55:09.710Z,1.50
2019-01-10T06:57:42.809Z,1.50
2019-01-10T07:00:25.757Z,1.50
2019-01-10T07:02:58.734Z,1.50
2019-01-10T07:05:31.931Z,1.50
2019-01-10T07:08:05.497Z,1.60
2019-01-10T07:10:38.529Z,1.60
2019-01-10T07:13:11.626Z,1.60
2019-01-10T07:15:44.847Z,1.60
2019-01-10T07:18:17.824Z,1.60
2019-01-10T07:20:52.244Z,1.60
2019-01-10T07:23:25.307Z,1.70
2019-01-10T07:25:58.413Z,1.60
2019-01-10T07:28:31.595Z,1.70
2019-01-10T07:31:27.377Z,1.60
2019-01-10T07:34:04.003Z,1.60
2019-01-10T07:36:36.995Z,1.50
2019-01-10T07:39:16.069Z,1.60
2019-01-10T07:41:49.504Z,1.60
2019-01-10T07:44:25.511Z,1.70
2019-01-10T07:46:58.815Z,1.70
2019-01-10T07:49:31.906Z,-1.10
2019-01-10T07:52:05.288Z,1.60
2019-01-10T07:54:38.380Z,1.60
2019-01-10T07:57:11.531Z,1.50
2019-01-10T07:59:44.596Z,1.60
2019-01-10T08:02:17.599Z,1.60
2019-01-10T08:04:50.661Z,1.60
2019-01-10T08:07:23.691Z,1.50
2019-01-10T08:09:56.659Z,1.50
2019-01-10T08:12:29.847Z,1.50
2019-01-10T08:15:11.627Z,1.50
2019-01-10T08:17:37.675Z,1.60
2019-01-10T08:20:10.896Z,1.60
2019-01-10T08:22:44.037Z,1.60
2019-01-10T08:25:17.107Z,1.60
2019-01-10T08:27:50.245Z,1.60
2019-01-10T08:30:25.313Z,1.70
2019-01-10T08:32:58.592Z,1.70
2019-01-10T08:35:31.913Z,1.80
2019-01-10T08:38:05.178Z,1.80
2019-01-10T08:40:38.287Z,1.80
2019-01-10T08:43:11.845Z,1.80
2019-01-10T08:45:45.037Z,1.90
2019-01-10T08:48:19.075Z,2.00
2019-01-10T08:51:01.623Z,2.00
2019-01-10T08:53:42.475Z,2.00
2019-01-10T08:56:16.314Z,2.10
2019-01-10T08:58:49.303Z,2.10
2019-01-10T09:01:22.392Z,2.20
2019-01-10T09:03:55.676Z,2.20
2019-01-10T09:06:28.739Z,2.20
2019-01-10T09:09:03.227Z,2.30
2019-01-10T09:11:36.387Z,2.30
2019-01-10T09:14:10.046Z,2.30
2019-01-10T09:17:06.571Z,2.40
2019-01-10T09:19:40.371Z,2.40
2019-01-10T09:22:13.365Z,2.40
2019-01-10T09:24:46.466Z,2.40
2019-01-10T09:27:19.532Z,2.50
2019-01-10T09:29:52.817Z,2.50
2019-01-10T09:32:25.935Z,2.50
2019-01-10T09:34:59.067Z,2.60
2019-01-10T09:37:32.295Z,2.60
2019-01-10T09:40:06.541Z,2.70
2019-01-10T09:42:39.632Z,2.80
2019-01-10T09:45:14.795Z,2.70
2019-01-10T09:47:47.971Z,2.90
2019-01-10T09:50:21.649Z,2.80
2019-01-10T09:52:55.829Z,2.70
2019-01-10T09:55:28.775Z,2.70
2019-01-10T09:58:01.880Z,2.80
2019-01-10T10:00:35.002Z,2.80
2019-01-10T10:03:08.385Z,2.80
2019-01-10T10:05:41.495Z,2.80
2019-01-10T10:08:14.814Z,2.70
2019-01-10T10:10:47.925Z,2.60
2019-01-10T10:13:21.887Z,2.80
2019-01-10T10:15:55.039Z,2.80
2019-01-10T10:18:28.928Z,2.80
2019-01-10T10:21:02.295Z,2.90
2019-01-10T10:23:35.451Z,3.00
2019-01-10T10:26:08.443Z,3.10
2019-01-10T10:28:41.558Z,3.10
2019-01-10T10:31:14.639Z,3.20
2019-01-10T10:33:47.961Z,3.20
2019-01-10T10:36:21.117Z,3.30
2019-01-10T10:38:54.321Z,3.30
2019-01-10T10:41:27.515Z,3.40
2019-01-10T10:44:00.695Z,3.50
2019-01-10T10:46:33.793Z,3.70
2019-01-10T10:49:07.187Z,3.80
2019-01-10T10:51:40.411Z,3.70
2019-01-10T10:54:13.455Z,3.80
2019-01-10T10:56:46.519Z,3.70
2019-01-10T10:59:19.609Z,3.70
2019-01-10T11:01:52.951Z,3.80
2019-01-10T11:04:26.120Z,3.90
2019-01-10T11:06:59.245Z,3.90
2019-01-10T11:09:32.333Z,3.90
2019-01-10T11:12:05.580Z,3.90
2019-01-10T11:14:39.575Z,4.00
2019-01-10T11:17:12.837Z,4.10
2019-01-10T11:19:45.841Z,4.20
2019-01-10T11:22:18.951Z,4.30
2019-01-10T11:24:52.075Z,4.20
2019-01-10T11:27:25.191Z,4.20
2019-01-10T11:29:58.535Z,4.10
2019-01-10T11:32:31.709Z,4.20
2019-01-10T11:35:04.966Z,4.30
2019-01-10T11:37:38.116Z,4.30
2019-01-10T11:40:13.867Z,4.20
2019-01-10T11:42:48.332Z,4.30
2019-01-10T11:45:26.140Z,4.30
2019-01-10T11:47:59.326Z,4.30
2019-01-10T11:50:33.351Z,4.30
2019-01-10T11:53:06.571Z,4.20
2019-01-10T11:55:39.681Z,4.20
2019-01-10T11:58:15.585Z,4.30
2019-01-10T12:00:48.709Z,4.40
2019-01-10T12:03:21.879Z,4.40
2019-01-10T12:05:58.089Z,4.30
2019-01-10T12:08:31.443Z,4.40
2019-01-10T12:11:04.621Z,4.30
2019-01-10T12:13:38.729Z,4.20
2019-01-10T12:16:11.867Z,4.20
2019-01-10T12:18:44.942Z,4.10
2019-01-10T12:21:18.268Z,4.20
2019-01-10T12:23:51.519Z,4.10
2019-01-10T12:26:26.255Z,4.10
2019-01-10T12:28:59.461Z,4.10
2019-01-10T12:31:32.801Z,3.90
2019-01-10T12:34:06.067Z,3.80
2019-01-10T12:36:42.999Z,3.80
2019-01-10T12:39:15.740Z,3.90
2019-01-10T12:41:49.103Z,4.00
2019-01-10T12:44:22.234Z,3.90
2019-01-10T12:46:55.307Z,4.00
2019-01-10T12:49:28.428Z,4.00
2019-01-10T12:52:01.549Z,4.10
2019-01-10T12:54:34.627Z,4.00
2019-01-10T12:57:07.677Z,3.90
2019-01-10T12:59:40.774Z,3.90
2019-01-10T13:02:13.767Z,3.90
2019-01-10T13:04:46.903Z,4.00
2019-01-10T13:07:19.978Z,4.10
2019-01-10T13:09:53.125Z,4.10
2019-01-10T13:12:26.205Z,4.20
2019-01-10T13:14:59.353Z,4.20
2019-01-10T13:17:32.436Z,4.20
2019-01-10T13:20:06.433Z,4.20
2019-01-10T13:22:39.651Z,4.30
2019-01-10T13:25:14.423Z,4.10
2019-01-10T13:27:47.707Z,4.20
2019-01-10T13:30:22.642Z,4.20
2019-01-10T13:32:58.796Z,4.20
2019-01-10T13:35:32.086Z,4.10
2019-01-10T13:38:05.170Z,4.10
2019-01-10T13:40:38.437Z,4.20
2019-01-10T13:43:11.551Z,4.20
2019-01-10T13:45:46.269Z,4.10
2019-01-10T13:48:19.557Z,4.10
2019-01-10T13:50:58.005Z,4.10
2019-01-10T13:53:31.301Z,4.10
2019-01-10T13:56:04.555Z,4.10
2019-01-10T13:58:37.590Z,4.00
2019-01-10T14:01:10.729Z,3.90
2019-01-10T14:03:46.498Z,4.00
2019-01-10T14:06:19.588Z,4.10
2019-01-10T14:08:53.903Z,4.00
2019-01-10T14:11:26.991Z,4.00
2019-01-10T14:14:22.202Z,3.90
2019-01-10T14:16:55.323Z,4.00
2019-01-10T14:19:33.381Z,4.10
2019-01-10T14:22:06.589Z,4.10
2019-01-10T14:24:39.675Z,4.20
2019-01-10T14:27:12.862Z,4.20
2019-01-10T14:29:46.006Z,4.10
2019-01-10T14:32:19.965Z,4.10
2019-01-10T14:34:52.949Z,4.10
2019-01-10T14:37:26.075Z,4.10
2019-01-10T14:40:00.256Z,4.10
2019-01-10T14:42:33.472Z,4.00
2019-01-10T14:45:08.768Z,4.10
2019-01-10T14:47:41.874Z,4.10
2019-01-10T14:50:16.668Z,4.10
2019-01-10T14:52:49.702Z,3.90
2019-01-10T14:55:22.820Z,4.00
2019-01-10T14:57:57.102Z,4.10
2019-01-10T15:00:30.246Z,4.00
2019-01-10T15:03:03.237Z,4.10
2019-01-10T15:05:36.439Z,4.00
2019-01-10T15:08:09.530Z,4.00
2019-01-10T15:10:42.623Z,4.00
2019-01-10T15:13:15.706Z,3.90
2019-01-10T15:15:48.749Z,3.90
2019-01-10T15:18:21.868Z,3.80
2019-01-10T15:20:55.001Z,3.90
2019-01-10T15:23:28.105Z,3.80
2019-01-10T15:26:01.236Z,3.80
2019-01-10T15:28:34.446Z,3.80
2019-01-10T15:31:07.558Z,3.70
2019-01-10T15:33:40.640Z,3.60
2019-01-10T15:36:13.681Z,3.80
2019-01-10T15:38:46.677Z,3.80
2019-01-10T15:41:19.871Z,3.80
2019-01-10T15:43:52.948Z,3.90
2019-01-10T15:46:26.092Z,3.80
2019-01-10T15:48:59.181Z,3.80
2019-01-10T15:51:32.282Z,3.80
2019-01-10T15:54:05.362Z,3.70
2019-01-10T15:56:38.486Z,3.90
2019-01-10T15:59:11.642Z,3.70
2019-01-10T16:01:44.791Z,3.70
2019-01-10T16:04:18.884Z,3.70
2019-01-10T16:06:51.985Z,3.70
2019-01-10T16:09:25.098Z,3.70
2019-01-10T16:11:58.126Z,3.70
2019-01-10T16:14:31.474Z,3.60
2019-01-10T16:17:04.596Z,3.50
2019-01-10T16:19:37.994Z,3.40
2019-01-10T16:22:11.060Z,3.50
2019-01-10T16:24:44.053Z,3.50
2019-01-10T16:27:17.203Z,3.50
2019-01-10T16:29:50.320Z,3.50
2019-01-10T16:32:23.358Z,3.50
2019-01-10T16:34:56.426Z,3.50
2019-01-10T16:37:29.564Z,3.40
2019-01-10T16:40:04.504Z,3.40
2019-01-10T16:42:37.530Z,3.50
2019-01-10T16:45:19.342Z,3.50
2019-01-10T16:47:52.566Z,3.60
2019-01-10T16:50:25.578Z,3.50
2019-01-10T16:53:03.712Z,3.50
2019-01-10T16:55:39.778Z,3.50
2019-01-10T16:58:13.782Z,3.40
2019-01-10T17:00:47.702Z,3.30
2019-01-10T17:03:20.874Z,3.40
2019-01-10T17:05:53.864Z,3.40
2019-01-10T17:08:26.885Z,3.40
2019-01-10T17:11:00.074Z,3.40
2019-01-10T17:13:33.258Z,3.30
2019-01-10T17:16:06.406Z,3.30
2019-01-10T17:18:39.503Z,3.30
2019-01-10T17:21:12.578Z,3.30
2019-01-10T17:23:45.678Z,3.20
2019-01-10T17:26:18.758Z,3.40
2019-01-10T17:28:51.947Z,3.30
2019-01-10T17:31:34.080Z,3.30
2019-01-10T17:34:07.221Z,3.40
2019-01-10T17:36:40.324Z,3.30
2019-01-10T17:39:13.348Z,3.20
2019-01-10T17:41:46.434Z,3.20
2019-01-10T17:44:19.543Z,3.20
2019-01-10T17:46:52.638Z,3.20
2019-01-10T17:49:25.778Z,3.20
2019-01-10T17:51:58.836Z,3.20
2019-01-10T17:54:32.462Z,3.20
2019-01-10T17:57:05.679Z,3.20
2019-01-10T17:59:41.524Z,3.20
2019-01-10T18:02:15.578Z,3.40
2019-01-10T18:04:48.890Z,3.20
2019-01-10T18:07:22.044Z,3.20
2019-01-10T18:09:56.034Z,3.10
2019-01-10T18:12:29.227Z,3.20
2019-01-10T18:15:02.397Z,3.10
2019-01-10T18:17:35.774Z,3.00
2019-01-10T18:20:15.732Z,2.90
2019-01-10T18:22:49.988Z,2.90
2019-01-10T18:25:23.132Z,3.00
2019-01-10T18:27:56.172Z,3.00
2019-01-10T18:30:29.282Z,3.00
2019-01-10T18:33:02.362Z,3.00
2019-01-10T18:35:35.641Z,3.10
2019-01-10T18:38:08.706Z,3.10
2019-01-10T18:40:41.880Z,3.00
2019-01-10T18:43:14.968Z,3.00
2019-01-10T18:45:48.162Z,2.80
2019-01-10T18:48:21.270Z,2.90
2019-01-10T18:50:54.416Z,3.00
2019-01-10T18:53:29.964Z,3.00
2019-01-10T18:56:05.986Z,2.90
2019-01-10T18:58:39.196Z,2.80
2019-01-10T19:01:12.502Z,2.80
2019-01-10T19:03:45.610Z,2.80
2019-01-10T19:06:18.742Z,2.80
2019-01-10T19:08:51.898Z,2.90
2019-01-10T19:11:25.026Z,2.80
2019-01-10T19:13:58.106Z,2.90
2019-01-10T19:16:31.227Z,2.80
2019-01-10T19:19:04.528Z,2.80
2019-01-10T19:21:37.636Z,1.30
2019-01-10T19:24:10.702Z,2.90
2019-01-10T19:26:43.710Z,2.90
2019-01-10T19:29:17.298Z,2.90
2019-01-10T19:31:52.353Z,2.90
2019-01-10T19:34:25.543Z,2.80
2019-01-10T19:36:59.626Z,2.90
2019-01-10T19:39:32.826Z,2.70
2019-01-10T19:42:06.124Z,2.80
2019-01-10T19:44:40.188Z,2.70
2019-01-10T19:47:24.118Z,2.70
2019-01-10T19:49:58.648Z,2.90
2019-01-10T19:52:31.877Z,2.80
2019-01-10T19:55:05.407Z,2.70
2019-01-10T19:57:38.548Z,2.80
2019-01-10T20:00:24.348Z,2.80
2019-01-10T20:02:58.639Z,2.90
2019-01-10T20:05:31.864Z,2.90
2019-01-10T20:08:04.981Z,2.80
2019-01-10T20:10:38.066Z,2.90
2019-01-10T20:13:11.207Z,2.80
2019-01-10T20:15:44.217Z,2.90
2019-01-10T20:18:17.345Z,2.90
2019-01-10T20:20:50.426Z,2.90
2019-01-10T20:23:27.591Z,2.90
2019-01-10T20:26:01.814Z,3.00
2019-01-10T20:28:34.918Z,2.90
2019-01-10T20:31:08.033Z,3.00
2019-01-10T20:33:41.240Z,3.00
2019-01-10T20:36:14.447Z,2.80
2019-01-10T20:38:47.728Z,2.80
2019-01-10T20:41:21.708Z,2.80
2019-01-10T20:43:54.810Z,2.90
2019-01-10T20:46:27.986Z,3.00
2019-01-10T20:49:04.298Z,3.10
2019-01-10T20:51:37.488Z,3.10
2019-01-10T20:54:11.700Z,3.00
2019-01-10T20:56:44.716Z,3.00
2019-01-10T20:59:17.896Z,3.00
2019-01-10T21:01:51.086Z,3.00
2019-01-10T21:04:24.150Z,3.10
2019-01-10T21:06:57.221Z,3.10
2019-01-10T21:09:30.420Z,3.10
2019-01-10T21:12:03.784Z,3.00
2019-01-10T21:14:37.373Z,3.00
2019-01-10T21:17:10.688Z,3.00
2019-01-10T21:19:43.743Z,3.00
2019-01-10T21:22:16.885Z,3.00
2019-01-10T21:24:51.306Z,3.00
2019-01-10T21:27:24.414Z,3.20
2019-01-10T21:29:57.582Z,3.20
2019-01-10T21:32:30.769Z,3.20
2019-01-10T21:35:04.050Z,3.20
2019-01-10T21:37:37.199Z,3.20
2019-01-10T21:40:12.427Z,3.10
2019-01-10T21:42:45.434Z,3.10
2019-01-10T21:45:19.195Z,3.10
2019-01-10T21:47:53.275Z,3.20
2019-01-10T21:50:27.270Z,3.20
2019-01-10T21:53:00.351Z,3.10
2019-01-10T21:55:33.573Z,3.10
2019-01-10T21:58:06.625Z,3.10
2019-01-10T22:00:40.148Z,3.10
2019-01-10T22:03:13.162Z,3.10
2019-01-10T22:05:46.372Z,3.10
2019-01-10T22:08:19.621Z,3.10
2019-01-10T22:10:52.800Z,3.20
2019-01-10T22:13:25.920Z,3.10
2019-01-10T22:15:59.055Z,3.20
2019-01-10T22:18:32.412Z,3.40
2019-01-10T22:21:06.477Z,3.30
2019-01-10T22:23:39.455Z,3.10
2019-01-10T22:26:12.795Z,3.10
2019-01-10T22:28:45.893Z,3.00
2019-01-10T22:31:18.999Z,3.30
2019-01-10T22:33:52.210Z,3.30
2019-01-10T22:36:25.423Z,3.30
2019-01-10T22:39:02.155Z,3.20
2019-01-10T22:41:36.278Z,3.20
2019-01-10T22:44:09.291Z,3.20
2019-01-10T22:46:42.387Z,3.20
2019-01-10T22:49:15.479Z,3.30
2019-01-10T22:51:48.694Z,3.30
2019-01-10T22:54:22.351Z,3.30
2019-01-10T22:56:55.483Z,3.20
2019-01-10T22:59:28.597Z,3.20
2019-01-10T23:02:01.877Z,3.30
2019-01-10T23:04:37.544Z,3.10
2019-01-10T23:07:23.843Z,3.20
2019-01-10T23:10:04.125Z,3.20
2019-01-10T23:12:37.315Z,3.30
2019-01-10T23:15:30.602Z,3.20
2019-01-10T23:18:05.367Z,3.20
2019-01-10T23:20:38.537Z,3.10
2019-01-10T23:23:12.220Z,3.20
2019-01-10T23:25:55.203Z,3.20
2019-01-10T23:28:28.228Z,3.30
2019-01-10T23:31:02.095Z,3.30
2019-01-10T23:33:35.125Z,3.30
2019-01-10T23:36:25.523Z,3.30
2019-01-10T23:41:57.753Z,3.20
2019-01-10T23:44:30.980Z,3.30
2019-01-10T23:47:04.087Z,3.20
2019-01-10T23:49:37.117Z,3.20
2019-01-10T23:52:10.174Z,3.20
2019-01-10T23:54:43.455Z,3.10
2019-01-10T23:57:16.433Z,3.10
2019-01-10T23:59:49.505Z,3.00
